EDT,Max TemperatureF,Mean TemperatureF,Min TemperatureF,Max Dew PointF,MeanDew PointF,Min DewpointF,Max Humidity, Mean Humidity, Min Humidity, Max Sea Level PressureIn, Mean Sea Level PressureIn, Min Sea Level PressureIn, Max VisibilityMiles, Mean VisibilityMiles, Min VisibilityMiles, Max Wind SpeedMPH, Mean Wind SpeedMPH, Max Gust SpeedMPH,PrecipitationIn, CloudCover, Events, WindDirDegrees
2011-10-1,62,55,48,57,51,43,94,85,77,29.79,29.71,29.62,10,9,3,15,7,20,0.06,8,Rain,3
2011-10-2,62,55,48,52,47,43,93,80,52,29.93,29.84,29.76,10,9,1,10,6,17,0.02,7,Rain,93
2011-10-3,60,52,44,50,45,39,94,83,52,30.09,30.02,29.93,10,8,5,8,1,,0.29,6,Rain-Thunderstorm,217
2011-10-4,57,52,48,52,48,46,93,88,77,30.11,30.01,29.98,10,7,1,12,4,17,0.28,8,Rain,325
2011-10-5,66,57,48,48,42,23,82,64,35,30.30,30.08,30.00,10,10,10,23,8,31,0.00,2,,343
2011-10-6,62,48,35,39,32,27,81,65,26,30.36,30.33,30.28,10,10,10,12,4,20,0.00,0,,343
2011-10-7,62,50,37,41,35,28,87,64,34,30.49,30.44,30.36,10,10,10,8,3,,0.00,0,,351
2011-10-8,75,60,44,54,45,37,82,70,44,30.50,30.46,30.41,10,10,10,5,1,,0.00,0,,306
2011-10-9,80,66,51,57,51,46,88,75,39,30.44,30.38,30.31,10,10,10,12,3,16,0.00,0,,335
2011-10-10,80,66,51,57,51,48,94,71,32,30.31,30.24,30.17,10,10,9,13,3,18,0.00,0,,349
2011-10-11,69,63,57,55,50,41,77,66,38,30.26,30.21,30.18,10,10,10,9,6,,0.00,0,,79
2011-10-12,57,54,51,50,48,43,88,81,63,30.22,30.16,30.01,10,10,9,14,6,21,0.00,3,,71
2011-10-13,60,56,53,57,54,50,94,89,82,30.01,29.87,29.76,10,4,0,14,10,21,1.32,8,Rain,61
2011-10-14,66,60,55,64,59,48,94,90,77,29.76,29.58,29.39,10,5,0,17,8,25,0.26,7,Rain-Thunderstorm,167
2011-10-15,60,55,50,48,41,34,82,61,42,29.76,29.63,29.49,10,10,10,18,8,30,0.00,3,,242
2011-10-16,62,55,48,43,37,34,62,51,42,29.87,29.78,29.68,10,10,10,13,7,23,0.00,5,,241
2011-10-17,62,56,51,46,40,34,82,56,34,29.80,29.72,29.65,10,10,10,12,6,23,0.00,4,,251
2011-10-18,66,57,48,45,37,30,76,53,32,29.95,29.87,29.79,10,10,10,8,4,,0.00,2,,220
2011-10-19,57,54,50,54,48,43,94,82,67,29.94,29.76,29.51,10,6,2,21,8,32,0.00,6,Rain,67
2011-10-20,66,58,51,63,49,37,94,76,54,29.94,29.55,29.42,10,7,1,18,12,30,0.07,5,,154
2011-10-21,55,50,44,39,37,36,71,64,51,30.01,29.85,29.70,10,10,10,12,7,20,0.00,1,,247
2011-10-22,55,47,39,39,37,34,81,69,51,30.12,30.05,30.00,10,10,10,8,3,,0.00,3,,330
2011-10-23,53,46,39,39,36,34,87,71,50,30.16,30.13,30.10,10,10,10,8,4,,0.00,5,,19
2011-10-24,57,47,37,46,40,34,93,80,59,30.15,30.08,29.96,10,9,4,12,1,,0.00,2,,212
2011-10-25,57,50,42,45,36,28,93,66,33,30.06,29.99,29.95,10,9,3,17,4,25,0.00,1,,325
2011-10-26,55,48,41,46,39,32,81,75,61,30.06,29.92,29.76,10,10,10,7,1,,0.00,7,,142
2011-10-27,50,42,33,45,38,30,87,83,76,29.93,29.75,29.64,10,8,1,16,6,24,0.02,8,Rain-Snow,33
2011-10-28,44,37,30,30,26,23,86,69,43,30.27,30.12,29.93,10,10,10,17,10,23,0.00,2,,347
2011-10-29,37,34,32,28,27,25,87,78,60,30.20,30.00,29.84,10,3,0,24,13,34,0.00,8,Snow,48
2011-10-30,44,,44,,,,,,,30.11,30.11,30.11,15,10,10,17,11,29,0.00,0,,294
2011-10-31,,,,,,,,,,30.38,30.37,30.35,10,10,10,12,2,,0.00,3,,166